createdAt,value
2022-10-02T00:00:02.232Z,12.96
2022-10-02T00:02:36.199Z,12.89
2022-10-02T00:05:18.320Z,12.87
2022-10-02T00:07:50.580Z,12.82
2022-10-02T00:10:24.077Z,12.83
2022-10-02T00:13:00.133Z,12.84
2022-10-02T00:15:30.994Z,12.79
2022-10-02T00:18:06.239Z,12.77
2022-10-02T00:20:46.680Z,12.79
2022-10-02T00:23:22.875Z,12.80
2022-10-02T00:25:58.351Z,12.76
2022-10-02T00:28:34.973Z,12.75
2022-10-02T00:31:22.449Z,12.76
2022-10-02T00:34:00.251Z,12.79
2022-10-02T00:36:40.662Z,12.79
2022-10-02T00:39:22.306Z,12.77
2022-10-02T00:42:28.156Z,12.73
2022-10-02T00:45:21.262Z,12.76
2022-10-02T00:47:56.690Z,12.69
2022-10-02T00:50:36.437Z,12.75
2022-10-02T00:53:16.755Z,13.04
2022-10-02T00:56:10.134Z,13.18
2022-10-02T00:59:05.487Z,13.11
2022-10-02T01:01:41.395Z,13.07
2022-10-02T01:04:14.833Z,13.13
2022-10-02T01:06:43.344Z,13.15
2022-10-02T01:09:13.151Z,13.04
2022-10-02T01:11:44.395Z,12.97
2022-10-02T01:14:13.762Z,12.96
2022-10-02T01:16:43.343Z,12.97
2022-10-02T01:19:23.988Z,12.90
2022-10-02T01:21:56.478Z,12.96
2022-10-02T01:24:38.602Z,12.96
2022-10-02T01:27:08.936Z,12.84
2022-10-02T01:29:38.374Z,12.73
2022-10-02T01:32:09.051Z,12.67
2022-10-02T01:34:38.351Z,12.63
2022-10-02T01:37:07.142Z,12.52
2022-10-02T01:39:36.524Z,12.48
2022-10-02T01:42:04.879Z,12.53
2022-10-02T01:44:35.798Z,12.52
2022-10-02T01:47:10.699Z,12.53
2022-10-02T01:49:59.209Z,12.59
2022-10-02T01:52:40.330Z,12.62
2022-10-02T01:55:27.179Z,12.69
2022-10-02T01:58:18.867Z,12.69
2022-10-02T02:01:02.815Z,12.77
2022-10-02T02:03:43.965Z,12.76
2022-10-02T02:06:20.353Z,12.79
2022-10-02T02:09:01.572Z,12.73
2022-10-02T02:11:39.750Z,12.72
2022-10-02T02:14:13.714Z,12.76
2022-10-02T02:16:45.720Z,12.83
2022-10-02T02:19:19.815Z,12.79
2022-10-02T02:21:55.386Z,12.76
2022-10-02T02:24:26.937Z,12.76
2022-10-02T02:27:01.631Z,12.73
2022-10-02T02:29:32.615Z,12.75
2022-10-02T02:32:09.684Z,12.73
2022-10-02T02:34:44.568Z,12.69
2022-10-02T02:37:19.073Z,12.65
2022-10-02T02:39:52.506Z,12.60
2022-10-02T02:42:26.013Z,12.53
2022-10-02T02:44:59.524Z,12.55
2022-10-02T02:47:37.600Z,12.56
2022-10-02T02:50:10.956Z,12.62
2022-10-02T02:52:47.060Z,12.59
2022-10-02T02:55:21.380Z,12.62
2022-10-02T02:57:56.390Z,12.63
2022-10-02T03:00:28.339Z,12.60
2022-10-02T03:02:58.769Z,12.59
2022-10-02T03:05:27.730Z,12.73
2022-10-02T03:08:02.718Z,12.75
2022-10-02T03:10:45.588Z,12.83
2022-10-02T03:13:28.599Z,12.83
2022-10-02T03:16:12.113Z,12.84
2022-10-02T03:18:54.714Z,12.87
2022-10-02T03:21:29.808Z,13.07
2022-10-02T03:24:07.176Z,13.07
2022-10-02T03:26:41.189Z,13.10
2022-10-02T03:29:15.791Z,13.27
2022-10-02T03:31:45.006Z,13.21
2022-10-02T03:34:16.458Z,13.21
2022-10-02T03:36:47.824Z,13.20
2022-10-02T03:39:25.224Z,13.08
2022-10-02T03:41:57.786Z,13.13
2022-10-02T03:44:33.173Z,13.15
2022-10-02T03:47:03.356Z,13.11
2022-10-02T03:49:34.801Z,13.11
2022-10-02T03:52:04.130Z,13.13
2022-10-02T03:54:37.245Z,13.15
2022-10-02T03:57:06.732Z,13.17
2022-10-02T03:59:44.772Z,13.13
2022-10-02T04:02:28.433Z,13.13
2022-10-02T04:05:04.340Z,13.15
2022-10-02T04:07:38.495Z,13.11
2022-10-02T04:10:29.187Z,13.10
2022-10-02T04:13:06.386Z,13.20
2022-10-02T04:15:49.226Z,13.18
2022-10-02T04:18:28.597Z,13.17
2022-10-02T04:21:08.177Z,13.14
2022-10-02T04:23:43.698Z,13.18
2022-10-02T04:26:21.021Z,13.13
2022-10-02T04:28:56.560Z,13.04
2022-10-02T04:31:30.858Z,12.90
2022-10-02T04:34:05.489Z,12.76
2022-10-02T04:36:45.742Z,12.69
2022-10-02T04:39:31.120Z,12.66
2022-10-02T04:42:15.422Z,12.59
2022-10-02T04:45:08.672Z,12.63
2022-10-02T04:47:57.635Z,12.55
2022-10-02T04:50:50.234Z,12.46
2022-10-02T04:53:36.834Z,12.42
2022-10-02T04:56:24.318Z,12.35
2022-10-02T04:59:13.012Z,12.25
2022-10-02T05:01:56.630Z,12.25
2022-10-02T05:05:11.964Z,12.21
2022-10-02T05:08:10.341Z,12.29
2022-10-02T05:11:01.177Z,12.17
2022-10-02T05:13:45.324Z,12.25
2022-10-02T05:16:31.014Z,12.25
2022-10-02T05:19:16.707Z,12.21
2022-10-02T05:22:04.344Z,12.17
2022-10-02T05:24:45.486Z,12.08
2022-10-02T05:27:46.121Z,12.13
2022-10-02T05:30:17.192Z,12.11
2022-10-02T05:33:12.667Z,12.18
2022-10-02T05:35:56.250Z,12.21
2022-10-02T05:38:41.600Z,12.20
2022-10-02T05:41:17.712Z,12.21
2022-10-02T05:43:50.716Z,12.22
2022-10-02T05:46:24.907Z,12.32
2022-10-02T05:48:59.634Z,12.31
2022-10-02T05:51:37.210Z,12.35
2022-10-02T05:54:11.901Z,12.39
2022-10-02T05:56:45.221Z,12.46
2022-10-02T05:59:24.005Z,12.52
2022-10-02T06:01:55.307Z,12.59
2022-10-02T06:04:34.973Z,12.70
2022-10-02T06:07:10.899Z,12.75
2022-10-02T06:09:46.963Z,12.73
2022-10-02T06:12:26.865Z,12.90
2022-10-02T06:15:06.396Z,12.99
2022-10-02T06:17:41.963Z,12.99
2022-10-02T06:20:19.116Z,13.04
2022-10-02T06:22:52.627Z,13.07
2022-10-02T06:25:25.743Z,13.07
2022-10-02T06:27:59.056Z,13.18
2022-10-02T06:30:33.101Z,13.17
2022-10-02T06:33:13.735Z,13.14
2022-10-02T06:35:55.604Z,13.15
2022-10-02T06:38:38.764Z,13.24
2022-10-02T06:41:14.562Z,13.35
2022-10-02T06:44:05.170Z,13.32
2022-10-02T06:46:43.285Z,13.35
2022-10-02T06:49:25.064Z,13.42
2022-10-02T06:52:05.312Z,13.41
2022-10-02T06:54:51.007Z,13.40
2022-10-02T06:57:33.651Z,13.50
2022-10-02T07:00:09.686Z,13.57
2022-10-02T07:03:07.116Z,13.61
2022-10-02T07:06:01.944Z,13.63
2022-10-02T07:08:44.241Z,13.79
2022-10-02T07:11:22.438Z,13.78
2022-10-02T07:14:08.117Z,13.86
2022-10-02T07:17:01.299Z,13.85
2022-10-02T07:19:53.572Z,13.87
2022-10-02T07:22:43.890Z,13.99
2022-10-02T07:25:40.979Z,13.99
2022-10-02T07:28:18.312Z,14.10
2022-10-02T07:30:56.439Z,14.16
2022-10-02T07:33:37.840Z,14.16
2022-10-02T07:36:14.550Z,14.14
2022-10-02T07:39:05.472Z,14.24
2022-10-02T07:42:11.495Z,14.44
2022-10-02T07:44:57.869Z,14.38
2022-10-02T07:47:56.405Z,14.42
2022-10-02T07:50:35.131Z,14.37
2022-10-02T07:53:14.333Z,14.44
2022-10-02T07:55:49.764Z,14.49
2022-10-02T07:58:23.972Z,14.57
2022-10-02T08:00:56.050Z,14.75
2022-10-02T08:03:28.105Z,14.77
2022-10-02T08:05:57.913Z,14.75
2022-10-02T08:08:31.762Z,14.71
2022-10-02T08:11:07.591Z,14.71
2022-10-02T08:13:40.064Z,14.85
2022-10-02T08:16:10.986Z,14.96
2022-10-02T08:18:43.811Z,14.98
2022-10-02T08:21:16.780Z,14.96
2022-10-02T08:23:52.234Z,15.13
2022-10-02T08:26:31.789Z,15.32
2022-10-02T08:29:09.463Z,15.19
2022-10-02T08:31:39.322Z,15.30
2022-10-02T08:34:15.186Z,15.25
2022-10-02T08:37:16.525Z,15.39
2022-10-02T08:40:15.385Z,15.64
2022-10-02T08:43:34.175Z,15.71
2022-10-02T08:46:50.143Z,15.73
2022-10-02T08:49:48.026Z,15.78
2022-10-02T08:52:36.351Z,15.84
2022-10-02T08:55:50.843Z,16.01
2022-10-02T08:58:50.607Z,15.98
2022-10-02T09:02:02.024Z,16.02
2022-10-02T09:05:04.940Z,16.22
2022-10-02T09:08:09.000Z,16.46
2022-10-02T09:11:05.535Z,16.60
2022-10-02T09:14:12.875Z,16.36
2022-10-02T09:17:01.432Z,16.32
2022-10-02T09:19:42.740Z,16.40
2022-10-02T09:22:38.778Z,16.45
2022-10-02T09:25:25.327Z,16.52
2022-10-02T09:28:32.075Z,16.32
2022-10-02T09:31:42.549Z,16.36
2022-10-02T09:34:52.207Z,16.39
2022-10-02T09:38:05.626Z,16.61
2022-10-02T09:41:15.217Z,16.81
2022-10-02T09:44:08.286Z,17.11
2022-10-02T09:47:08.905Z,17.34
2022-10-02T09:50:03.415Z,17.39
2022-10-02T09:53:15.741Z,17.55
2022-10-02T09:56:16.325Z,17.45
2022-10-02T09:59:13.576Z,17.38
2022-10-02T10:02:02.211Z,17.43
2022-10-02T10:05:07.335Z,17.80
2022-10-02T10:08:11.840Z,17.18
2022-10-02T10:10:54.489Z,17.06
2022-10-02T10:13:44.665Z,17.14
2022-10-02T10:16:54.294Z,17.38
2022-10-02T10:19:55.237Z,17.52
2022-10-02T10:22:52.270Z,17.63
2022-10-02T10:25:38.487Z,17.72
2022-10-02T10:28:42.005Z,17.83
2022-10-02T10:31:34.673Z,17.48
2022-10-02T10:34:37.040Z,17.25
2022-10-02T10:37:25.273Z,17.10
2022-10-02T10:40:24.233Z,16.98
2022-10-02T10:43:21.197Z,17.18
2022-10-02T10:46:19.864Z,17.62
2022-10-02T10:49:04.910Z,18.03
2022-10-02T10:51:35.991Z,17.90
2022-10-02T10:54:48.808Z,17.72
2022-10-02T10:57:35.402Z,17.59
2022-10-02T11:00:18.018Z,17.50
2022-10-02T11:03:10.562Z,17.73
2022-10-02T11:06:12.692Z,17.89
2022-10-02T11:09:16.641Z,17.84
2022-10-02T11:12:01.340Z,18.07
2022-10-02T11:14:45.562Z,17.93
2022-10-02T11:17:44.592Z,18.00
2022-10-02T11:20:36.852Z,17.89
2022-10-02T11:23:46.162Z,17.84
2022-10-02T11:26:38.951Z,18.30
2022-10-02T11:29:44.938Z,18.40
2022-10-02T11:32:39.327Z,18.35
2022-10-02T11:35:33.544Z,18.47
2022-10-02T11:38:22.887Z,18.47
2022-10-02T11:41:07.863Z,18.38
2022-10-02T11:44:16.964Z,18.40
2022-10-02T11:47:07.655Z,18.77
2022-10-02T11:50:00.126Z,18.34
2022-10-02T11:53:00.948Z,18.30
2022-10-02T11:55:52.202Z,18.52
2022-10-02T11:58:28.028Z,18.47
2022-10-02T12:01:06.491Z,18.48
2022-10-02T12:03:48.952Z,18.44
2022-10-02T12:06:30.543Z,18.30
2022-10-02T12:09:08.575Z,18.45
2022-10-02T12:11:42.155Z,18.69
2022-10-02T12:14:26.737Z,18.85
2022-10-02T12:17:08.257Z,18.83
2022-10-02T12:20:14.118Z,19.09
2022-10-02T12:23:08.227Z,18.99
2022-10-02T12:26:02.315Z,19.11
2022-10-02T12:28:38.478Z,19.41
2022-10-02T12:31:17.315Z,19.34
2022-10-02T12:33:56.477Z,19.41
2022-10-02T12:36:45.964Z,19.21
2022-10-02T12:39:27.536Z,19.53
2022-10-02T12:42:15.739Z,19.69
2022-10-02T12:45:01.686Z,19.83
2022-10-02T12:47:58.060Z,19.51
2022-10-02T12:50:41.001Z,19.43
2022-10-02T12:53:39.752Z,19.55
2022-10-02T12:57:04.928Z,19.79
2022-10-02T12:59:42.932Z,18.83
2022-10-02T13:03:01.353Z,18.41
2022-10-02T13:05:52.331Z,18.24
2022-10-02T13:08:48.438Z,17.97
2022-10-02T13:11:29.024Z,17.82
2022-10-02T13:14:34.603Z,17.63
2022-10-02T13:17:18.940Z,17.48
2022-10-02T13:20:03.809Z,17.50
2022-10-02T13:22:43.119Z,17.31
2022-10-02T13:25:35.733Z,17.31
2022-10-02T13:28:22.647Z,17.18
2022-10-02T13:31:05.638Z,17.08
2022-10-02T13:33:54.256Z,17.01
2022-10-02T13:36:43.106Z,16.95
2022-10-02T13:39:34.188Z,17.01
2022-10-02T13:42:19.308Z,16.95
2022-10-02T13:44:58.633Z,16.81
2022-10-02T13:47:47.791Z,16.76
2022-10-02T13:50:28.612Z,16.73
2022-10-02T13:53:21.215Z,16.69
2022-10-02T13:55:54.806Z,16.64
2022-10-02T13:58:57.346Z,16.69
2022-10-02T14:01:41.666Z,16.64
2022-10-02T14:04:28.087Z,16.63
2022-10-02T14:07:05.427Z,16.64
2022-10-02T14:09:56.737Z,16.74
2022-10-02T14:12:32.049Z,16.76
2022-10-02T14:15:15.575Z,16.76
2022-10-02T14:18:12.249Z,16.70
2022-10-02T14:21:04.727Z,16.70
2022-10-02T14:23:50.998Z,16.63
2022-10-02T14:26:29.173Z,16.52
2022-10-02T14:29:32.359Z,16.46
2022-10-02T14:32:27.947Z,16.42
2022-10-02T14:35:12.154Z,16.36
2022-10-02T14:38:27.493Z,16.32
2022-10-02T14:40:59.326Z,16.33
2022-10-02T14:43:51.375Z,16.40
2022-10-02T14:46:54.468Z,16.43
2022-10-02T14:49:59.613Z,16.50
2022-10-02T14:52:51.118Z,16.49
2022-10-02T14:55:34.782Z,16.40
2022-10-02T14:58:23.604Z,16.33
2022-10-02T15:01:12.323Z,16.25
2022-10-02T15:04:14.440Z,16.19
2022-10-02T15:07:02.668Z,16.19
2022-10-02T15:09:41.519Z,16.09
2022-10-02T15:12:19.883Z,16.05
2022-10-02T15:15:14.389Z,16.06
2022-10-02T15:17:57.361Z,16.01
2022-10-02T15:20:34.437Z,16.02
2022-10-02T15:23:08.359Z,15.98
2022-10-02T15:25:58.162Z,15.92
2022-10-02T15:28:50.285Z,15.91
2022-10-02T15:31:27.694Z,15.84
2022-10-02T15:34:07.833Z,15.73
2022-10-02T15:36:56.259Z,15.67
2022-10-02T15:39:48.727Z,15.63
2022-10-02T15:42:50.107Z,15.55
2022-10-02T15:45:44.839Z,15.51
2022-10-02T15:48:37.727Z,15.49
2022-10-02T15:51:21.098Z,15.44
2022-10-02T15:54:00.251Z,15.44
2022-10-02T15:57:11.260Z,15.34
2022-10-02T15:59:56.603Z,15.36
2022-10-02T16:03:14.522Z,15.32
2022-10-02T16:06:03.729Z,15.22
2022-10-02T16:08:55.957Z,15.13
2022-10-02T16:11:59.379Z,15.16
2022-10-02T16:14:44.115Z,15.09
2022-10-02T16:17:39.908Z,15.05
2022-10-02T16:20:30.632Z,14.99
2022-10-02T16:23:17.194Z,14.98
2022-10-02T16:26:01.446Z,14.93
2022-10-02T16:28:48.595Z,14.91
2022-10-02T16:31:42.159Z,14.85
2022-10-02T16:34:26.454Z,14.85
2022-10-02T16:37:02.576Z,14.77
2022-10-02T16:39:54.304Z,14.71
2022-10-02T16:42:34.422Z,14.74
2022-10-02T16:45:19.206Z,14.72
2022-10-02T16:47:54.376Z,14.74
2022-10-02T16:50:28.235Z,14.69
2022-10-02T16:53:08.266Z,14.68
2022-10-02T16:55:41.214Z,14.64
2022-10-02T16:58:24.810Z,14.54
2022-10-02T17:00:58.879Z,14.48
2022-10-02T17:03:33.714Z,14.47
2022-10-02T17:06:11.566Z,14.49
2022-10-02T17:08:48.006Z,14.47
2022-10-02T17:11:21.619Z,14.40
2022-10-02T17:14:03.027Z,14.37
2022-10-02T17:16:40.877Z,14.34
2022-10-02T17:19:23.241Z,14.40
2022-10-02T17:21:57.649Z,14.37
2022-10-02T17:24:38.101Z,14.34
2022-10-02T17:27:15.416Z,14.28
2022-10-02T17:29:54.038Z,14.33
2022-10-02T17:32:36.856Z,14.40
2022-10-02T17:35:16.489Z,14.42
2022-10-02T17:38:05.158Z,14.42
2022-10-02T17:40:41.968Z,14.31
2022-10-02T17:43:21.581Z,14.31
2022-10-02T17:45:58.903Z,14.28
2022-10-02T17:48:38.797Z,14.20
2022-10-02T17:51:47.569Z,14.34
2022-10-02T17:54:42.529Z,14.27
2022-10-02T17:57:22.941Z,14.27
2022-10-02T18:00:10.242Z,14.21
2022-10-02T18:03:10.337Z,14.16
2022-10-02T18:06:00.694Z,14.10
2022-10-02T18:08:58.740Z,14.06
2022-10-02T18:11:44.941Z,14.05
2022-10-02T18:14:26.897Z,14.03
2022-10-02T18:17:06.565Z,14.13
2022-10-02T18:19:52.550Z,14.14
2022-10-02T18:22:33.125Z,14.05
2022-10-02T18:25:30.095Z,13.98
2022-10-02T18:28:13.565Z,13.96
2022-10-02T18:30:54.234Z,13.98
2022-10-02T18:33:42.328Z,14.03
2022-10-02T18:36:25.269Z,14.05
2022-10-02T18:39:01.204Z,14.19
2022-10-02T18:41:50.369Z,14.30
2022-10-02T18:44:46.003Z,14.34
2022-10-02T18:47:34.303Z,14.27
2022-10-02T18:50:24.681Z,14.33
2022-10-02T18:53:16.504Z,14.42
2022-10-02T18:56:03.259Z,14.38
2022-10-02T18:58:44.696Z,14.44
2022-10-02T19:01:31.079Z,14.34
2022-10-02T19:04:15.847Z,14.38
2022-10-02T19:06:54.209Z,14.37
2022-10-02T19:09:27.388Z,14.33
2022-10-02T19:11:58.978Z,14.30
2022-10-02T19:14:35.221Z,14.31
2022-10-02T19:17:07.811Z,14.36
2022-10-02T19:19:39.969Z,14.31
2022-10-02T19:22:11.275Z,14.26
2022-10-02T19:24:46.237Z,14.38
2022-10-02T19:27:23.200Z,14.34
2022-10-02T19:29:56.034Z,14.31
2022-10-02T19:32:27.402Z,14.41
2022-10-02T19:35:08.956Z,14.36
2022-10-02T19:37:43.813Z,14.37
2022-10-02T19:40:17.754Z,14.40
2022-10-02T19:42:51.697Z,14.38
2022-10-02T19:45:27.540Z,14.33
2022-10-02T19:47:59.849Z,14.38
2022-10-02T19:50:40.001Z,14.34
2022-10-02T19:53:20.122Z,14.33
2022-10-02T19:55:53.052Z,14.30
2022-10-02T19:58:24.392Z,14.24
2022-10-02T20:00:54.424Z,14.26
2022-10-02T20:03:25.362Z,14.24
2022-10-02T20:06:00.860Z,14.24
2022-10-02T20:08:34.249Z,14.19
2022-10-02T20:11:11.804Z,14.16
2022-10-02T20:13:43.340Z,14.10
2022-10-02T20:16:42.237Z,14.17
2022-10-02T20:19:18.975Z,14.13
2022-10-02T20:21:52.891Z,14.00
2022-10-02T20:24:27.913Z,13.93
2022-10-02T20:27:02.593Z,13.93
2022-10-02T20:29:38.026Z,13.85
2022-10-02T20:32:13.326Z,13.89
2022-10-02T20:34:45.061Z,13.85
2022-10-02T20:37:19.529Z,13.86
2022-10-02T20:39:55.192Z,13.83
2022-10-02T20:42:31.168Z,13.72
2022-10-02T20:44:59.927Z,13.76
2022-10-02T20:48:03.193Z,13.69
2022-10-02T20:50:42.921Z,13.73
2022-10-02T20:53:49.832Z,13.75
2022-10-02T20:56:39.462Z,13.71
2022-10-02T20:59:39.495Z,13.72
2022-10-02T21:02:26.459Z,13.75
2022-10-02T21:05:32.496Z,13.75
2022-10-02T21:08:34.635Z,13.65
2022-10-02T21:11:17.911Z,13.69
2022-10-02T21:14:31.107Z,13.73
2022-10-02T21:17:26.373Z,13.76
2022-10-02T21:20:50.315Z,13.75
2022-10-02T21:23:52.382Z,13.68
2022-10-02T21:26:53.010Z,13.63
2022-10-02T21:29:55.553Z,13.63
2022-10-02T21:32:32.514Z,13.62
2022-10-02T21:35:17.081Z,13.58
2022-10-02T21:38:01.379Z,13.57
2022-10-02T21:41:08.577Z,13.57
2022-10-02T21:44:10.365Z,13.55
2022-10-02T21:47:13.635Z,13.51
2022-10-02T21:50:18.746Z,13.48
2022-10-02T21:53:49.980Z,13.48
2022-10-02T21:57:05.783Z,13.50
2022-10-02T22:00:03.644Z,13.52
2022-10-02T22:03:18.760Z,13.50
2022-10-02T22:06:23.770Z,13.48
2022-10-02T22:09:15.084Z,13.40
2022-10-02T22:11:57.554Z,13.40
2022-10-02T22:14:37.798Z,13.37
2022-10-02T22:17:16.568Z,13.35
2022-10-02T22:20:17.020Z,13.35
2022-10-02T22:22:59.394Z,13.32
2022-10-02T22:25:45.291Z,13.32
2022-10-02T22:28:27.297Z,13.28
2022-10-02T22:31:23.980Z,13.24
2022-10-02T22:34:06.966Z,13.17
2022-10-02T22:36:53.318Z,13.23
2022-10-02T22:39:31.131Z,13.27
2022-10-02T22:42:09.538Z,13.30
2022-10-02T22:44:45.618Z,13.31
2022-10-02T22:47:30.421Z,13.34
2022-10-02T22:50:03.431Z,13.35
2022-10-02T22:52:42.836Z,13.34
2022-10-02T22:55:20.025Z,13.34
2022-10-02T22:58:05.484Z,13.28
2022-10-02T23:00:51.171Z,13.30
2022-10-02T23:03:27.085Z,13.32
2022-10-02T23:06:04.697Z,13.35
2022-10-02T23:08:42.375Z,13.34
2022-10-02T23:11:18.153Z,13.32
2022-10-02T23:13:51.906Z,13.38
2022-10-02T23:16:28.363Z,13.42
2022-10-02T23:19:02.186Z,13.48
2022-10-02T23:21:45.721Z,13.50
2022-10-02T23:24:28.706Z,13.47
2022-10-02T23:27:10.369Z,13.51
2022-10-02T23:29:51.780Z,13.55
2022-10-02T23:32:27.201Z,13.54
2022-10-02T23:35:06.145Z,13.62
2022-10-02T23:37:42.105Z,13.58
2022-10-02T23:40:22.726Z,13.61
2022-10-02T23:42:56.145Z,13.55
2022-10-02T23:45:30.995Z,13.54
2022-10-02T23:48:03.974Z,13.52
2022-10-02T23:50:45.532Z,13.48
2022-10-02T23:53:41.694Z,13.41
2022-10-02T23:56:27.479Z,13.41
2022-10-02T23:59:15.051Z,13.44
